Trinidad, Cuba
Current Conditions -  °F | °C
As of 9:50 AM on Thursday 30 Oct 2014 (Local Time) from MUSC Reporting Station
Scattered Clouds Scattered Clouds  
Wind Chill: 73°   Ceiling: Unl
Heat Index: 73°   Visibility: 6mi
Dew Point: 72°   Wind: 5mph
Humidity: 94%   Direction: 30°NNE
Pressure: 29.97"   Gusts: NA
Location:  21.8°N, 79.98°W
Report Text: MUSC 301350Z 03004KT 350V070 9000 SCT025 23/22 Q1015
Loading
Personal Weather Stations






























Interactive Weather Map
Tropical Storm Tracking
New forecast layout! Learn more

10-Day Weather Forecast

Advertisements
Track Severe Weather on mobile